Flight Track Log - Related Links

Times and Time Zones

All times are in EDT time to prevent confusion due to time zone crossing. See the ASQ4233 flight status page for this flight to view local times or setup timezone preferences in your user account.

Time Position Orientation Groundspeed Altitude Reporting Facility
EDT Latitude Longitude Course Direction KTS MPH feet Rate Location/Type
Sat 10:38:08 AM 44.3367 -73.0844 173° South 244 281 5,800  Level Boston Center
Sat 10:39:00 AM 44.1787 -73.2553 190° South  Level FlightAware Approximate
Sat 10:39:08 AM 44.2636 -73.0808 178° South 257 296 8,500  Level Boston Center
Sat 10:40:00 AM 44.1051 -73.2737 190° South  Level FlightAware Approximate
Sat 10:40:08 AM 44.1867 -73.0742 176° South 275 316 10,300  Level Boston Center
Sat 10:41:00 AM 44.0323 -73.2971 196° South  Level FlightAware Approximate
Sat 10:41:08 AM 44.0972 -73.0644 176° South 311 358 11,100  Level Boston Center
Sat 10:42:00 AM 43.9604 -73.3259 196° South  Level FlightAware Approximate
Sat 10:42:08 AM 44.0031 -73.1039 197° South 344 396 12,700  Level Boston Center
Sat 10:43:08 AM 43.9131 -73.1633 205° Southwest 353 406 14,100 1,300 Climbing Boston Center
Sat 10:44:08 AM 43.8275 -73.2169 204° Southwest 367 422 15,300 1,150 Climbing Boston Center
Sat 10:45:08 AM 43.7311 -73.2792 205° Southwest 378 435 16,400 1,200 Climbing Boston Center
Sat 10:46:08 AM 43.6200 -73.3492 205° Southwest 383 441 17,700 1,000 Climbing Boston Center
Sat 10:47:08 AM 43.5194 -73.4136 205° Southwest 388 447 18,400 950 Climbing Boston Center
Sat 10:48:08 AM 43.4147 -73.4747 203° Southwest 401 461 19,600 1,200 Climbing Boston Center
Sat 10:49:08 AM 43.3119 -73.5414 205° Southwest 406 467 20,800 1,050 Climbing Boston Center
Sat 10:50:08 AM 43.2031 -73.6078 204° Southwest 416 479 21,700 600 Climbing Boston Center
Sat 10:51:08 AM 43.0858 -73.6625 199° South 435 501 22,000 100 Climbing Boston Center
Sat 10:52:08 AM 42.9622 -73.7139 197° South 457 526 21,900 -450 Descending Boston Center
Sat 10:53:08 AM 42.8386 -73.7653 197° South 470 541 21,100 -700 Descending Boston Center
Sat 10:54:08 AM 42.7297 -73.8136 198° South 470 541 20,500 -750 Descending Boston Center
Sat 10:55:08 AM 42.5956 -73.8756 199° South 457 526 19,600 -800 Descending Boston Center
Sat 10:56:08 AM 42.4803 -73.9236 197° South 445 512 18,900 -750 Descending Boston Center
Sat 10:57:08 AM 42.3631 -73.9742 198° South 443 510 18,100 -800 Descending Boston Center
Sat 10:58:08 AM 42.2475 -74.0275 199° South 443 510 17,300 -1,050 Descending Boston Center
Sat 10:59:08 AM 42.1489 -74.0697 198° South 431 496 16,000 -900 Descending Boston Center
Sat 11:00:08 AM 42.0525 -74.1122 198° South 380 437 15,500 -800 Descending Boston Center
Sat 11:01:08 AM 41.9603 -74.1517 198° South 331 381 14,400 -1,100 Descending Boston Center
Sat 11:02:08 AM 41.8847 -74.1858 199° South 322 371 13,300 -1,500 Descending Boston Center
Sat 11:03:08 AM 41.7944 -74.2250 198° South 322 371 11,400 -1,500 Descending Boston Center
Sat 11:04:08 AM 41.7231 -74.2564 198° South 309 356 10,300 -1,200 Descending Boston Center
Sat 11:05:08 AM 41.6369 -74.2928 198° South 303 349 9,000 -1,100 Descending Boston Center
Sat 11:06:08 AM 41.5678 -74.3269 200° South 303 349 8,100 -548 Descending Boston Center
Sat 11:08:36 AM 41.3833 -74.4000 197° South 264 304 7,100 -288 Descending New York TRACON
Sat 11:09:36 AM 41.3000 -74.4333 197° South 280 322 7,100  Level New York TRACON
Sat 11:10:36 AM 41.2333 -74.4667 201° Southwest 276 318 7,100  Level New York TRACON
Sat 11:11:36 AM 41.1667 -74.5000 201° Southwest 279 321 7,100 -150 Level New York TRACON
Sat 11:12:36 AM 41.0833 -74.5333 197° South 283 326 6,800 -500 Descending New York TRACON
Sat 11:13:36 AM 41.0167 -74.5333 180° South 271 312 6,100 -350 Descending New York TRACON
Sat 11:14:36 AM 40.9333 -74.5500 189° South 279 321 6,100 -50 Level New York TRACON
Sat 11:15:36 AM 40.8500 -74.5500 180° South 277 319 6,000 -50 Descending New York TRACON
Sat 11:16:36 AM 40.7833 -74.5500 180° South 271 312 6,000 -300 Level New York TRACON
Sat 11:17:36 AM 40.7000 -74.5333 171° South 262 302 5,400 -450 Descending New York TRACON
Sat 11:18:36 AM 40.6333 -74.5167 169° South 259 298 5,100 -500 Descending New York TRACON
Sat 11:19:36 AM 40.5833 -74.4667 143° Southeast 247 284 4,400 -850 Descending New York TRACON
Sat 11:20:36 AM 40.5333 -74.4167 143° Southeast 244 281 3,400 -700 Descending New York TRACON
Sat 11:21:36 AM 40.4833 -74.3500 135° Southeast 189 217 3,000 -150 Descending New York TRACON
Sat 11:22:36 AM 40.5000 -74.3000 66° East 177 204 3,100 50 Climbing New York TRACON
Sat 11:23:36 AM 40.5333 -74.2667 37° Northeast 177 204 3,100  Level New York TRACON

Login

Don't have an account? Register now (free) for customized features, flight alerts, and more!